sensor_id;sensor_type;location;lat;lon;timestamp;pressure;altitude;pressure_sealevel;temperature;humidity
76611;BME280;65503;48.534;9.062;2023-08-30T00:01:01;96438.94;;;16.05;75.49
76611;BME280;65503;48.534;9.062;2023-08-30T00:03:28;96439.00;;;16.00;75.62
76611;BME280;65503;48.534;9.062;2023-08-30T00:05:54;96439.78;;;15.95;75.54
76611;BME280;65503;48.534;9.062;2023-08-30T00:08:21;96433.16;;;15.98;75.29
76611;BME280;65503;48.534;9.062;2023-08-30T00:10:48;96434.97;;;16.02;75.12
76611;BME280;65503;48.534;9.062;2023-08-30T00:13:15;96436.34;;;16.00;74.89
76611;BME280;65503;48.534;9.062;2023-08-30T00:15:42;96441.63;;;16.00;74.84
76611;BME280;65503;48.534;9.062;2023-08-30T00:18:08;96442.19;;;15.97;74.79
76611;BME280;65503;48.534;9.062;2023-08-30T00:20:36;96436.06;;;15.96;74.90
76611;BME280;65503;48.534;9.062;2023-08-30T00:23:03;96432.13;;;15.94;74.86
76611;BME280;65503;48.534;9.062;2023-08-30T00:25:29;96435.28;;;15.96;74.54
76611;BME280;65503;48.534;9.062;2023-08-30T00:27:56;96431.34;;;15.93;74.69
76611;BME280;65503;48.534;9.062;2023-08-30T00:30:22;96434.25;;;15.92;74.79
76611;BME280;65503;48.534;9.062;2023-08-30T00:32:49;96424.22;;;15.89;74.74
76611;BME280;65503;48.534;9.062;2023-08-30T00:35:16;96425.81;;;15.85;74.87
76611;BME280;65503;48.534;9.062;2023-08-30T00:37:42;96430.56;;;15.88;74.95
76611;BME280;65503;48.534;9.062;2023-08-30T00:40:09;96426.34;;;15.87;74.87
76611;BME280;65503;48.534;9.062;2023-08-30T00:42:36;96416.25;;;15.84;75.11
76611;BME280;65503;48.534;9.062;2023-08-30T00:45:03;96415.78;;;15.77;75.44
76611;BME280;65503;48.534;9.062;2023-08-30T00:47:30;96413.69;;;15.74;75.32
76611;BME280;65503;48.534;9.062;2023-08-30T00:49:57;96406.28;;;15.70;75.55
76611;BME280;65503;48.534;9.062;2023-08-30T00:52:24;96403.09;;;15.68;75.74
76611;BME280;65503;48.534;9.062;2023-08-30T00:54:50;96398.38;;;15.65;75.72
76611;BME280;65503;48.534;9.062;2023-08-30T00:57:17;96399.47;;;15.59;75.55
76611;BME280;65503;48.534;9.062;2023-08-30T00:59:44;96392.88;;;15.52;75.62
76611;BME280;65503;48.534;9.062;2023-08-30T01:02:10;96387.78;;;15.55;75.47
76611;BME280;65503;48.534;9.062;2023-08-30T01:04:38;96380.91;;;15.59;75.07
76611;BME280;65503;48.534;9.062;2023-08-30T01:07:05;96383.50;;;15.64;74.91
76611;BME280;65503;48.534;9.062;2023-08-30T01:09:32;96380.84;;;15.64;74.92
76611;BME280;65503;48.534;9.062;2023-08-30T01:12:23;96391.50;;;15.59;74.95
76611;BME280;65503;48.534;9.062;2023-08-30T01:15:12;96373.47;;;15.56;75.17
76611;BME280;65503;48.534;9.062;2023-08-30T01:17:42;96369.75;;;15.57;74.75
76611;BME280;65503;48.534;9.062;2023-08-30T01:20:14;96366.56;;;15.55;74.53
76611;BME280;65503;48.534;9.062;2023-08-30T01:23:48;96365.53;;;15.51;74.61
76611;BME280;65503;48.534;9.062;2023-08-30T01:28:24;96373.00;;;15.39;74.60
76611;BME280;65503;48.534;9.062;2023-08-30T01:30:53;96374.09;;;15.33;74.77
76611;BME280;65503;48.534;9.062;2023-08-30T01:33:27;96375.16;;;15.32;74.91
76611;BME280;65503;48.534;9.062;2023-08-30T01:35:59;96378.63;;;15.38;75.03
76611;BME280;65503;48.534;9.062;2023-08-30T01:38:27;96382.56;;;15.40;74.78
76611;BME280;65503;48.534;9.062;2023-08-30T01:40:59;96376.72;;;15.43;74.82
76611;BME280;65503;48.534;9.062;2023-08-30T01:43:27;96377.22;;;15.45;74.59
76611;BME280;65503;48.534;9.062;2023-08-30T01:45:58;96379.91;;;15.40;74.77
76611;BME280;65503;48.534;9.062;2023-08-30T01:48:26;96375.16;;;15.37;75.24
76611;BME280;65503;48.534;9.062;2023-08-30T01:50:54;96362.97;;;15.36;74.97
76611;BME280;65503;48.534;9.062;2023-08-30T01:53:25;96370.16;;;15.30;75.18
76611;BME280;65503;48.534;9.062;2023-08-30T01:55:52;96372.03;;;15.30;75.09
76611;BME280;65503;48.534;9.062;2023-08-30T01:58:19;96378.41;;;15.24;74.94
76611;BME280;65503;48.534;9.062;2023-08-30T02:00:46;96369.44;;;15.20;75.31
76611;BME280;65503;48.534;9.062;2023-08-30T02:03:14;96378.69;;;15.22;75.06
76611;BME280;65503;48.534;9.062;2023-08-30T02:08:16;96376.63;;;15.14;75.08
76611;BME280;65503;48.534;9.062;2023-08-30T02:11:02;96380.56;;;15.17;75.08
76611;BME280;65503;48.534;9.062;2023-08-30T02:13:31;96375.81;;;15.14;74.86
76611;BME280;65503;48.534;9.062;2023-08-30T02:16:00;96381.13;;;15.14;74.78
76611;BME280;65503;48.534;9.062;2023-08-30T02:18:27;96378.72;;;15.17;75.07
76611;BME280;65503;48.534;9.062;2023-08-30T02:20:54;96379.75;;;15.16;74.90
76611;BME280;65503;48.534;9.062;2023-08-30T02:23:24;96374.75;;;15.15;74.59
76611;BME280;65503;48.534;9.062;2023-08-30T02:25:51;96385.34;;;15.10;74.84
76611;BME280;65503;48.534;9.062;2023-08-30T02:28:18;96385.91;;;15.07;74.82
76611;BME280;65503;48.534;9.062;2023-08-30T02:30:44;96384.88;;;15.03;74.77
76611;BME280;65503;48.534;9.062;2023-08-30T02:33:11;96383.59;;;14.95;74.74
76611;BME280;65503;48.534;9.062;2023-08-30T02:35:38;96381.72;;;14.96;74.63
76611;BME280;65503;48.534;9.062;2023-08-30T02:38:04;96379.59;;;14.93;74.83
76611;BME280;65503;48.534;9.062;2023-08-30T02:40:32;96372.72;;;14.86;75.15
76611;BME280;65503;48.534;9.062;2023-08-30T02:42:58;96382.28;;;14.87;75.04
76611;BME280;65503;48.534;9.062;2023-08-30T02:45:25;96382.84;;;14.84;75.01
76611;BME280;65503;48.534;9.062;2023-08-30T02:47:55;96389.72;;;14.85;74.94
76611;BME280;65503;48.534;9.062;2023-08-30T02:50:24;96387.34;;;14.84;74.93
76611;BME280;65503;48.534;9.062;2023-08-30T02:52:51;96383.34;;;14.86;75.00
76611;BME280;65503;48.534;9.062;2023-08-30T02:55:18;96386.53;;;14.83;75.20
76611;BME280;65503;48.534;9.062;2023-08-30T02:57:45;96381.25;;;14.83;75.42
76611;BME280;65503;48.534;9.062;2023-08-30T03:00:13;96381.22;;;14.88;75.24
76611;BME280;65503;48.534;9.062;2023-08-30T03:02:40;96387.88;;;14.86;75.39
76611;BME280;65503;48.534;9.062;2023-08-30T03:05:07;96386.50;;;14.94;75.02
76611;BME280;65503;48.534;9.062;2023-08-30T03:07:35;96383.28;;;15.02;74.84
76611;BME280;65503;48.534;9.062;2023-08-30T03:10:01;96387.53;;;15.03;74.43
76611;BME280;65503;48.534;9.062;2023-08-30T03:12:30;96385.16;;;14.96;74.39
76611;BME280;65503;48.534;9.062;2023-08-30T03:14:56;96377.47;;;14.95;74.38
76611;BME280;65503;48.534;9.062;2023-08-30T03:17:23;96375.38;;;14.97;74.66
76611;BME280;65503;48.534;9.062;2023-08-30T03:19:54;96372.75;;;14.92;75.03
76611;BME280;65503;48.534;9.062;2023-08-30T03:22:20;96371.16;;;14.91;75.03
76611;BME280;65503;48.534;9.062;2023-08-30T03:24:47;96371.16;;;14.91;75.05
76611;BME280;65503;48.534;9.062;2023-08-30T03:27:13;96365.84;;;14.91;75.25
76611;BME280;65503;48.534;9.062;2023-08-30T03:29:40;96366.34;;;14.93;74.81
76611;BME280;65503;48.534;9.062;2023-08-30T03:32:06;96370.06;;;14.97;74.05
76611;BME280;65503;48.534;9.062;2023-08-30T03:34:33;96361.59;;;14.95;74.27
76611;BME280;65503;48.534;9.062;2023-08-30T03:36:59;96360.56;;;14.91;74.42
76611;BME280;65503;48.534;9.062;2023-08-30T03:39:26;96369.56;;;14.89;74.63
76611;BME280;65503;48.534;9.062;2023-08-30T03:41:52;96364.25;;;14.89;74.26
76611;BME280;65503;48.534;9.062;2023-08-30T03:44:19;96360.84;;;14.84;74.39
76611;BME280;65503;48.534;9.062;2023-08-30T03:46:45;96362.69;;;14.83;74.12
76611;BME280;65503;48.534;9.062;2023-08-30T03:49:12;96366.94;;;14.84;74.50
76611;BME280;65503;48.534;9.062;2023-08-30T03:51:39;96362.97;;;14.82;74.54
76611;BME280;65503;48.534;9.062;2023-08-30T03:54:05;96356.63;;;14.78;74.54
76611;BME280;65503;48.534;9.062;2023-08-30T03:56:32;96370.16;;;14.66;75.21
76611;BME280;65503;48.534;9.062;2023-08-30T03:58:59;96366.19;;;14.64;75.39
76611;BME280;65503;48.534;9.062;2023-08-30T04:01:25;96365.94;;;14.60;75.38
76611;BME280;65503;48.534;9.062;2023-08-30T04:03:52;96379.22;;;14.55;75.62
76611;BME280;65503;48.534;9.062;2023-08-30T04:06:18;96367.81;;;14.55;75.14
76611;BME280;65503;48.534;9.062;2023-08-30T04:08:45;96371.81;;;14.52;75.05
76611;BME280;65503;48.534;9.062;2023-08-30T04:11:11;96374.19;;;14.48;75.01
76611;BME280;65503;48.534;9.062;2023-08-30T04:13:38;96376.31;;;14.52;74.94
76611;BME280;65503;48.534;9.062;2023-08-30T04:16:04;96368.88;;;14.54;74.68
76611;BME280;65503;48.534;9.062;2023-08-30T04:18:31;96380.00;;;14.56;74.52
76611;BME280;65503;48.534;9.062;2023-08-30T04:20:58;96368.63;;;14.55;74.54
76611;BME280;65503;48.534;9.062;2023-08-30T04:23:25;96370.47;;;14.55;75.20
76611;BME280;65503;48.534;9.062;2023-08-30T04:25:52;96380.28;;;14.49;74.69
76611;BME280;65503;48.534;9.062;2023-08-30T04:28:18;96375.53;;;14.46;74.82
76611;BME280;65503;48.534;9.062;2023-08-30T04:30:45;96375.53;;;14.46;74.76
76611;BME280;65503;48.534;9.062;2023-08-30T04:33:12;96373.94;;;14.50;74.74
76611;BME280;65503;48.534;9.062;2023-08-30T04:35:39;96372.88;;;14.51;74.86
76611;BME280;65503;48.534;9.062;2023-08-30T04:38:05;96372.34;;;14.49;74.93
76611;BME280;65503;48.534;9.062;2023-08-30T04:40:32;96374.97;;;14.49;75.14
76611;BME280;65503;48.534;9.062;2023-08-30T04:42:59;96377.09;;;14.47;75.03
76611;BME280;65503;48.534;9.062;2023-08-30T04:45:26;96385.06;;;14.52;75.40
76611;BME280;65503;48.534;9.062;2023-08-30T04:47:52;96378.66;;;14.63;74.89
76611;BME280;65503;48.534;9.062;2023-08-30T04:50:19;96378.66;;;14.68;75.30
76611;BME280;65503;48.534;9.062;2023-08-30T04:52:45;96375.19;;;14.73;74.84
76611;BME280;65503;48.534;9.062;2023-08-30T04:55:12;96379.94;;;14.76;74.80
76611;BME280;65503;48.534;9.062;2023-08-30T04:57:38;96372.25;;;14.79;74.77
76611;BME280;65503;48.534;9.062;2023-08-30T05:00:05;96363.72;;;14.87;75.01
76611;BME280;65503;48.534;9.062;2023-08-30T05:02:32;96368.25;;;14.92;74.78
76611;BME280;65503;48.534;9.062;2023-08-30T05:04:59;96371.94;;;14.91;75.25
76611;BME280;65503;48.534;9.062;2023-08-30T05:07:25;96368.53;;;14.85;75.04
76611;BME280;65503;48.534;9.062;2023-08-30T05:09:52;96358.47;;;14.77;75.08
76611;BME280;65503;48.534;9.062;2023-08-30T05:12:19;96364.31;;;14.79;75.16
76611;BME280;65503;48.534;9.062;2023-08-30T05:14:46;96364.31;;;14.79;75.14
76611;BME280;65503;48.534;9.062;2023-08-30T05:17:12;96367.19;;;14.88;75.04
76611;BME280;65503;48.534;9.062;2023-08-30T05:19:39;96367.44;;;14.92;75.27
76611;BME280;65503;48.534;9.062;2023-08-30T05:22:05;96362.94;;;14.87;75.31
76611;BME280;65503;48.534;9.062;2023-08-30T05:24:32;96361.06;;;14.93;74.92
76611;BME280;65503;48.534;9.062;2023-08-30T05:27:00;96368.97;;;15.03;74.88
76611;BME280;65503;48.534;9.062;2023-08-30T05:29:26;96364.22;;;15.00;75.17
76611;BME280;65503;48.534;9.062;2023-08-30T05:31:53;96367.91;;;15.09;75.22
76611;BME280;65503;48.534;9.062;2023-08-30T05:34:20;96372.09;;;15.20;74.77
76611;BME280;65503;48.534;9.062;2023-08-30T05:36:46;96369.09;;;15.26;75.32
76611;BME280;65503;48.534;9.062;2023-08-30T05:39:12;96358.81;;;15.20;75.12
76611;BME280;65503;48.534;9.062;2023-08-30T05:41:39;96356.22;;;15.15;74.91
76611;BME280;65503;48.534;9.062;2023-08-30T05:44:06;96356.22;;;15.15;75.23
76611;BME280;65503;48.534;9.062;2023-08-30T05:46:33;96370.56;;;15.09;74.64
76611;BME280;65503;48.534;9.062;2023-08-30T05:49:00;96364.16;;;15.10;74.84
76611;BME280;65503;48.534;9.062;2023-08-30T05:51:29;96360.75;;;15.04;74.50
76611;BME280;65503;48.534;9.062;2023-08-30T05:53:55;96363.63;;;15.13;74.76
76611;BME280;65503;48.534;9.062;2023-08-30T05:56:22;96366.22;;;15.23;74.93
76611;BME280;65503;48.534;9.062;2023-08-30T05:58:48;96376.75;;;15.33;75.17
76611;BME280;65503;48.534;9.062;2023-08-30T06:01:18;96369.31;;;15.40;74.93
76611;BME280;65503;48.534;9.062;2023-08-30T06:03:45;96374.53;;;15.50;75.05
76611;BME280;65503;48.534;9.062;2023-08-30T06:06:13;96371.88;;;15.55;75.11
76611;BME280;65503;48.534;9.062;2023-08-30T06:08:40;96374.22;;;15.62;74.52
76611;BME280;65503;48.534;9.062;2023-08-30T06:11:07;96381.97;;;15.58;75.08
76611;BME280;65503;48.534;9.062;2023-08-30T06:13:34;96392.44;;;15.74;74.97
76611;BME280;65503;48.534;9.062;2023-08-30T06:16:00;96390.22;;;15.91;74.58
76611;BME280;65503;48.534;9.062;2023-08-30T06:18:30;96391.22;;;15.95;74.50
76611;BME280;65503;48.534;9.062;2023-08-30T06:20:56;96398.59;;;16.03;74.62
76611;BME280;65503;48.534;9.062;2023-08-30T06:23:23;96392.28;;;15.99;73.61
76611;BME280;65503;48.534;9.062;2023-08-30T06:25:56;96387.44;;;16.06;74.52
76611;BME280;65503;48.534;9.062;2023-08-30T06:28:23;96389.81;;;16.07;74.34
76611;BME280;65503;48.534;9.062;2023-08-30T06:30:50;96393.81;;;16.05;74.37
76611;BME280;65503;48.534;9.062;2023-08-30T06:33:17;96389.81;;;16.07;73.95
76611;BME280;65503;48.534;9.062;2023-08-30T06:35:43;96394.09;;;16.03;74.16
76611;BME280;65503;48.534;9.062;2023-08-30T06:38:10;96386.81;;;15.85;73.46
76611;BME280;65503;48.534;9.062;2023-08-30T06:40:43;96386.31;;;15.78;73.57
76611;BME280;65503;48.534;9.062;2023-08-30T06:43:09;96383.56;;;15.93;73.68
76611;BME280;65503;48.534;9.062;2023-08-30T06:45:38;96394.63;;;16.05;72.93
76611;BME280;65503;48.534;9.062;2023-08-30T06:48:07;96391.28;;;15.90;71.86
76611;BME280;65503;48.534;9.062;2023-08-30T06:50:36;96400.72;;;16.01;72.47
76611;BME280;65503;48.534;9.062;2023-08-30T06:53:03;96403.38;;;16.01;72.27
76611;BME280;65503;48.534;9.062;2023-08-30T06:55:30;96391.16;;;16.05;72.11
76611;BME280;65503;48.534;9.062;2023-08-30T06:57:58;96392.66;;;16.16;71.94
76611;BME280;65503;48.534;9.062;2023-08-30T07:00:25;96385.19;;;16.18;71.31
76611;BME280;65503;48.534;9.062;2023-08-30T07:02:51;96380.72;;;16.13;70.83
76611;BME280;65503;48.534;9.062;2023-08-30T07:05:18;96379.88;;;16.18;70.59
76611;BME280;65503;48.534;9.062;2023-08-30T07:07:45;96377.00;;;16.43;69.83
76611;BME280;65503;48.534;9.062;2023-08-30T07:10:11;96370.44;;;16.65;69.20
76611;BME280;65503;48.534;9.062;2023-08-30T07:12:38;96367.84;;;16.54;68.19
76611;BME280;65503;48.534;9.062;2023-08-30T07:15:05;96373.56;;;16.72;68.89
76611;BME280;65503;48.534;9.062;2023-08-30T07:17:31;96373.53;;;16.96;67.85
76611;BME280;65503;48.534;9.062;2023-08-30T07:20:16;96372.88;;;16.85;67.15
76611;BME280;65503;48.534;9.062;2023-08-30T07:22:43;96373.22;;;17.02;67.20
76611;BME280;65503;48.534;9.062;2023-08-30T07:25:09;96375.66;;;17.17;67.24
76611;BME280;65503;48.534;9.062;2023-08-30T07:27:36;96381.78;;;17.18;66.41
76611;BME280;65503;48.534;9.062;2023-08-30T07:30:04;96371.69;;;17.15;66.71
76611;BME280;65503;48.534;9.062;2023-08-30T07:32:31;96379.00;;;17.04;66.79
76611;BME280;65503;48.534;9.062;2023-08-30T07:34:57;96383.72;;;17.12;67.29
76611;BME280;65503;48.534;9.062;2023-08-30T07:37:25;96381.13;;;17.07;66.96
76611;BME280;65503;48.534;9.062;2023-08-30T07:39:51;96377.47;;;17.22;67.25
76611;BME280;65503;48.534;9.062;2023-08-30T07:42:19;96379.97;;;17.13;66.78
76611;BME280;65503;48.534;9.062;2023-08-30T07:44:46;96382.88;;;17.35;66.31
76611;BME280;65503;48.534;9.062;2023-08-30T07:47:12;96380.59;;;17.48;66.02
76611;BME280;65503;48.534;9.062;2023-08-30T07:49:40;96379.72;;;17.52;65.80
76611;BME280;65503;48.534;9.062;2023-08-30T07:52:06;96381.19;;;17.63;65.33
76611;BME280;65503;48.534;9.062;2023-08-30T07:54:37;96389.66;;;17.84;64.40
76611;BME280;65503;48.534;9.062;2023-08-30T07:57:05;96390.00;;;17.96;64.99
76611;BME280;65503;48.534;9.062;2023-08-30T07:59:36;96384.50;;;18.06;65.99
76611;BME280;65503;48.534;9.062;2023-08-30T08:02:06;96386.31;;;18.25;65.24
76611;BME280;65503;48.534;9.062;2023-08-30T08:04:34;96373.66;;;18.49;63.69
76611;BME280;65503;48.534;9.062;2023-08-30T08:07:02;96377.66;;;18.65;63.67
76611;BME280;65503;48.534;9.062;2023-08-30T08:09:30;96381.22;;;18.61;63.24
76611;BME280;65503;48.534;9.062;2023-08-30T08:11:57;96385.53;;;18.70;62.43
76611;BME280;65503;48.534;9.062;2023-08-30T08:14:25;96383.25;;;18.64;61.86
76611;BME280;65503;48.534;9.062;2023-08-30T08:16:52;96385.84;;;18.82;61.12
76611;BME280;65503;48.534;9.062;2023-08-30T08:19:18;96382.09;;;18.56;62.59
76611;BME280;65503;48.534;9.062;2023-08-30T08:21:50;96384.97;;;18.41;62.62
76611;BME280;65503;48.534;9.062;2023-08-30T08:24:17;96379.19;;;18.52;63.22
76611;BME280;65503;48.534;9.062;2023-08-30T08:26:43;96382.78;;;18.89;63.17
76611;BME280;65503;48.534;9.062;2023-08-30T08:29:10;96383.47;;;19.08;61.46
76611;BME280;65503;48.534;9.062;2023-08-30T08:31:37;96386.53;;;19.15;60.77
76611;BME280;65503;48.534;9.062;2023-08-30T08:34:11;96379.41;;;19.11;60.31
76611;BME280;65503;48.534;9.062;2023-08-30T08:36:38;96381.97;;;19.16;60.23
76611;BME280;65503;48.534;9.062;2023-08-30T08:39:06;96382.78;;;19.30;60.56
76611;BME280;65503;48.534;9.062;2023-08-30T08:41:44;96385.53;;;19.52;59.79
76611;BME280;65503;48.534;9.062;2023-08-30T08:44:11;96378.38;;;19.61;59.13
76611;BME280;65503;48.534;9.062;2023-08-30T08:46:39;96381.47;;;19.41;59.19
76611;BME280;65503;48.534;9.062;2023-08-30T08:49:25;96376.31;;;19.31;59.62
76611;BME280;65503;48.534;9.062;2023-08-30T08:52:03;96381.47;;;19.41;59.60
76611;BME280;65503;48.534;9.062;2023-08-30T08:54:52;96379.25;;;19.70;59.39
76611;BME280;65503;48.534;9.062;2023-08-30T08:57:19;96381.28;;;19.73;58.87
76611;BME280;65503;48.534;9.062;2023-08-30T08:59:45;96378.56;;;19.65;58.58
76611;BME280;65503;48.534;9.062;2023-08-30T09:02:14;96374.38;;;19.72;58.92
76611;BME280;65503;48.534;9.062;2023-08-30T09:04:41;96383.44;;;19.85;57.62
76611;BME280;65503;48.534;9.062;2023-08-30T09:07:08;96378.03;;;19.99;58.17
76611;BME280;65503;48.534;9.062;2023-08-30T09:09:34;96373.41;;;20.13;57.92
76611;BME280;65503;48.534;9.062;2023-08-30T09:12:01;96377.97;;;20.12;57.26
76611;BME280;65503;48.534;9.062;2023-08-30T09:14:27;96375.56;;;20.55;58.82
76611;BME280;65503;48.534;9.062;2023-08-30T09:16:55;96377.09;;;20.79;57.28
76611;BME280;65503;48.534;9.062;2023-08-30T09:19:23;96373.84;;;21.08;55.75
76611;BME280;65503;48.534;9.062;2023-08-30T09:21:59;96371.66;;;21.01;54.17
76611;BME280;65503;48.534;9.062;2023-08-30T09:24:37;96375.88;;;20.93;55.47
76611;BME280;65503;48.534;9.062;2023-08-30T09:27:04;96373.50;;;20.92;55.35
76611;BME280;65503;48.534;9.062;2023-08-30T09:29:31;96373.56;;;21.09;56.45
76611;BME280;65503;48.534;9.062;2023-08-30T09:31:58;96366.63;;;21.08;54.76
76611;BME280;65503;48.534;9.062;2023-08-30T09:34:25;96359.72;;;21.07;54.02
76611;BME280;65503;48.534;9.062;2023-08-30T09:36:53;96361.97;;;21.22;53.92
76611;BME280;65503;48.534;9.062;2023-08-30T09:39:20;96362.19;;;21.52;54.87
76611;BME280;65503;48.534;9.062;2023-08-30T09:41:47;96370.53;;;21.41;55.50
76611;BME280;65503;48.534;9.062;2023-08-30T09:44:16;96370.00;;;21.22;55.23
76611;BME280;65503;48.534;9.062;2023-08-30T09:46:53;96359.53;;;20.95;54.23
76611;BME280;65503;48.534;9.062;2023-08-30T09:49:24;96349.47;;;21.00;53.37
76611;BME280;65503;48.534;9.062;2023-08-30T09:51:54;96360.97;;;21.01;55.00
76611;BME280;65503;48.534;9.062;2023-08-30T09:54:23;96359.00;;;21.32;55.25
76611;BME280;65503;48.534;9.062;2023-08-30T09:56:53;96352.88;;;21.58;53.38
76611;BME280;65503;48.534;9.062;2023-08-30T09:59:22;96357.44;;;21.66;53.06
76611;BME280;65503;48.534;9.062;2023-08-30T10:01:50;96351.28;;;21.39;53.58
76611;BME280;65503;48.534;9.062;2023-08-30T10:04:19;96348.78;;;21.52;54.75
76611;BME280;65503;48.534;9.062;2023-08-30T10:06:47;96341.84;;;21.85;54.07
76611;BME280;65503;48.534;9.062;2023-08-30T10:09:15;96342.94;;;21.67;52.10
76611;BME280;65503;48.534;9.062;2023-08-30T10:11:45;96349.88;;;21.42;52.82
76611;BME280;65503;48.534;9.062;2023-08-30T10:14:13;96349.22;;;21.36;52.49
76611;BME280;65503;48.534;9.062;2023-08-30T10:16:48;96342.03;;;21.63;52.97
76611;BME280;65503;48.534;9.062;2023-08-30T10:19:17;96333.19;;;21.97;51.88
76611;BME280;65503;48.534;9.062;2023-08-30T10:22:06;96341.84;;;21.85;51.07
76611;BME280;65503;48.534;9.062;2023-08-30T10:24:39;96335.25;;;21.74;50.86
76611;BME280;65503;48.534;9.062;2023-08-30T10:27:24;96333.34;;;21.66;51.71
76611;BME280;65503;48.534;9.062;2023-08-30T10:29:51;96336.97;;;21.78;50.89
76611;BME280;65503;48.534;9.062;2023-08-30T10:32:22;96325.47;;;21.95;50.03
76611;BME280;65503;48.534;9.062;2023-08-30T10:34:50;96327.19;;;21.91;49.99
76611;BME280;65503;48.534;9.062;2023-08-30T10:37:22;96326.09;;;21.92;50.40
76611;BME280;65503;48.534;9.062;2023-08-30T10:39:50;96329.88;;;22.08;48.69
76611;BME280;65503;48.534;9.062;2023-08-30T10:42:21;96323.41;;;22.09;48.08
76611;BME280;65503;48.534;9.062;2023-08-30T10:45:05;96322.59;;;22.17;49.60
76611;BME280;65503;48.534;9.062;2023-08-30T10:47:37;96315.47;;;22.30;48.06
76611;BME280;65503;48.534;9.062;2023-08-30T10:50:12;96314.13;;;22.45;49.59
76611;BME280;65503;48.534;9.062;2023-08-30T10:52:39;96315.47;;;22.68;48.46
76611;BME280;65503;48.534;9.062;2023-08-30T10:55:26;96321.00;;;22.72;48.05
76611;BME280;65503;48.534;9.062;2023-08-30T10:58:01;96304.41;;;22.78;46.68
76611;BME280;65503;48.534;9.062;2023-08-30T11:00:30;96308.13;;;22.94;47.11
76611;BME280;65503;48.534;9.062;2023-08-30T11:02:57;96303.94;;;23.05;45.84
76611;BME280;65503;48.534;9.062;2023-08-30T11:05:25;96306.81;;;23.00;46.79
76611;BME280;65503;48.534;9.062;2023-08-30T11:07:52;96304.56;;;23.02;45.00
76611;BME280;65503;48.534;9.062;2023-08-30T11:10:19;96301.72;;;23.28;43.87
76611;BME280;65503;48.534;9.062;2023-08-30T11:12:48;96310.19;;;23.39;44.18
76611;BME280;65503;48.534;9.062;2023-08-30T11:15:16;96307.50;;;23.80;43.98
76611;BME280;65503;48.534;9.062;2023-08-30T11:17:48;96307.25;;;24.06;43.61
76611;BME280;65503;48.534;9.062;2023-08-30T11:20:16;96303.50;;;23.99;44.72
76611;BME280;65503;48.534;9.062;2023-08-30T11:22:46;96300.56;;;23.79;43.55
76611;BME280;65503;48.534;9.062;2023-08-30T11:25:14;96297.50;;;23.48;46.23
76611;BME280;65503;48.534;9.062;2023-08-30T11:27:41;96300.81;;;23.45;46.46
76611;BME280;65503;48.534;9.062;2023-08-30T11:30:08;96305.00;;;23.34;47.55
76611;BME280;65503;48.534;9.062;2023-08-30T11:32:35;96303.59;;;23.57;45.17
76611;BME280;65503;48.534;9.062;2023-08-30T11:35:03;96298.97;;;23.78;44.12
76611;BME280;65503;48.534;9.062;2023-08-30T11:37:30;96293.50;;;23.87;43.57
76611;BME280;65503;48.534;9.062;2023-08-30T11:39:58;96291.00;;;23.49;42.81
76611;BME280;65503;48.534;9.062;2023-08-30T11:42:25;96282.84;;;23.37;43.88
76611;BME280;65503;48.534;9.062;2023-08-30T11:44:52;96287.84;;;23.47;43.87
76611;BME280;65503;48.534;9.062;2023-08-30T11:47:20;96290.38;;;23.52;43.07
76611;BME280;65503;48.534;9.062;2023-08-30T11:49:48;96293.09;;;23.64;43.38
76611;BME280;65503;48.534;9.062;2023-08-30T11:52:17;96291.28;;;23.56;43.12
76611;BME280;65503;48.534;9.062;2023-08-30T11:54:44;96288.84;;;23.96;44.65
76611;BME280;65503;48.534;9.062;2023-08-30T11:57:11;96283.44;;;23.84;43.71
76611;BME280;65503;48.534;9.062;2023-08-30T11:59:38;96284.84;;;23.48;43.48
76611;BME280;65503;48.534;9.062;2023-08-30T12:02:07;96285.63;;;23.28;42.50
76611;BME280;65503;48.534;9.062;2023-08-30T12:04:41;96287.09;;;23.46;44.01
76611;BME280;65503;48.534;9.062;2023-08-30T12:07:08;96278.13;;;23.75;42.93
76611;BME280;65503;48.534;9.062;2023-08-30T12:09:35;96280.63;;;23.80;42.01
76611;BME280;65503;48.534;9.062;2023-08-30T12:12:23;96277.72;;;23.85;43.86
76611;BME280;65503;48.534;9.062;2023-08-30T12:14:56;96282.25;;;24.06;44.77
76611;BME280;65503;48.534;9.062;2023-08-30T12:17:23;96289.41;;;24.02;43.45
76611;BME280;65503;48.534;9.062;2023-08-30T12:19:57;96293.72;;;23.82;43.19
76611;BME280;65503;48.534;9.062;2023-08-30T12:22:35;96288.91;;;23.34;44.34
76611;BME280;65503;48.534;9.062;2023-08-30T12:25:02;96281.91;;;22.91;44.85
76611;BME280;65503;48.534;9.062;2023-08-30T12:27:29;96280.03;;;22.54;45.71
76611;BME280;65503;48.534;9.062;2023-08-30T12:29:55;96284.06;;;22.31;46.50
76611;BME280;65503;48.534;9.062;2023-08-30T12:32:22;96286.28;;;22.29;46.90
76611;BME280;65503;48.534;9.062;2023-08-30T12:34:49;96284.00;;;22.48;45.74
76611;BME280;65503;48.534;9.062;2023-08-30T12:37:15;96274.50;;;22.59;45.15
76611;BME280;65503;48.534;9.062;2023-08-30T12:39:42;96279.00;;;22.76;46.05
76611;BME280;65503;48.534;9.062;2023-08-30T12:42:09;96274.00;;;22.95;45.91
76611;BME280;65503;48.534;9.062;2023-08-30T12:44:35;96271.00;;;23.38;43.96
76611;BME280;65503;48.534;9.062;2023-08-30T12:47:02;96277.59;;;23.82;43.58
76611;BME280;65503;48.534;9.062;2023-08-30T12:49:29;96277.91;;;24.13;43.35
76611;BME280;65503;48.534;9.062;2023-08-30T12:51:56;96276.44;;;24.16;42.14
76611;BME280;65503;48.534;9.062;2023-08-30T12:54:23;96279.88;;;24.04;43.40
76611;BME280;65503;48.534;9.062;2023-08-30T12:56:50;96275.25;;;23.60;43.19
76611;BME280;65503;48.534;9.062;2023-08-30T12:59:16;96278.09;;;23.22;44.02
76611;BME280;65503;48.534;9.062;2023-08-30T13:01:42;96264.88;;;22.87;44.93
76611;BME280;65503;48.534;9.062;2023-08-30T13:04:09;96263.84;;;22.71;46.52
76611;BME280;65503;48.534;9.062;2023-08-30T13:06:36;96270.22;;;22.58;47.30
76611;BME280;65503;48.534;9.062;2023-08-30T13:09:02;96265.44;;;22.34;49.12
76611;BME280;65503;48.534;9.062;2023-08-30T13:11:29;96266.34;;;22.00;50.48